createdAt,value
2022-11-30T00:01:41.773Z,52.70
2022-11-30T00:04:10.539Z,54.47
2022-11-30T00:06:42.536Z,61.80
2022-11-30T00:09:11.458Z,61.53
2022-11-30T00:11:40.034Z,52.17
2022-11-30T00:14:08.657Z,49.33
2022-11-30T00:16:37.599Z,54.67
2022-11-30T00:19:07.613Z,55.60
2022-11-30T00:21:36.214Z,52.03
2022-11-30T00:24:06.776Z,48.80
2022-11-30T00:26:35.375Z,50.13
2022-11-30T00:29:03.943Z,53.57
2022-11-30T00:31:32.565Z,50.40
2022-11-30T00:34:01.282Z,52.53
2022-11-30T00:36:31.341Z,59.03
2022-11-30T00:38:59.937Z,51.03
2022-11-30T00:41:28.585Z,59.37
2022-11-30T00:43:57.231Z,56.63
2022-11-30T00:46:25.928Z,58.77
2022-11-30T00:48:54.515Z,61.23
2022-11-30T00:51:23.161Z,54.13
2022-11-30T00:53:53.137Z,53.20
2022-11-30T00:56:23.739Z,48.97
2022-11-30T00:58:53.478Z,58.37
2022-11-30T01:01:22.119Z,56.50
2022-11-30T01:03:50.771Z,47.93
2022-11-30T01:06:19.365Z,48.80
2022-11-30T01:08:49.054Z,57.13
2022-11-30T01:11:22.265Z,50.30
2022-11-30T01:13:50.991Z,51.57
2022-11-30T01:16:22.866Z,51.20
2022-11-30T01:18:51.836Z,56.60
2022-11-30T01:21:22.490Z,57.00
2022-11-30T01:23:51.603Z,57.00
2022-11-30T01:26:21.680Z,56.20
2022-11-30T01:28:53.053Z,52.07
2022-11-30T01:31:23.505Z,56.17
2022-11-30T01:33:53.117Z,49.87
2022-11-30T01:36:25.446Z,57.77
2022-11-30T01:38:55.824Z,50.30
2022-11-30T01:41:27.719Z,45.63
2022-11-30T01:43:58.075Z,69.40
2022-11-30T01:46:35.432Z,56.27
2022-11-30T01:49:15.451Z,66.57
2022-11-30T01:51:47.787Z,50.07
2022-11-30T01:54:19.740Z,40.10
2022-11-30T01:56:53.688Z,48.90
2022-11-30T01:59:23.417Z,48.13
2022-11-30T02:01:52.791Z,53.40
2022-11-30T02:04:23.799Z,49.33
2022-11-30T02:06:52.590Z,55.13
2022-11-30T02:09:23.701Z,47.20
2022-11-30T02:11:53.924Z,51.00
2022-11-30T02:14:32.762Z,50.97
2022-11-30T02:17:11.883Z,46.23
2022-11-30T02:20:19.026Z,54.17
2022-11-30T02:23:00.304Z,49.20
2022-11-30T02:25:38.282Z,50.43
2022-11-30T02:28:25.049Z,46.63
2022-11-30T02:30:57.323Z,45.03
2022-11-30T02:33:30.247Z,47.33
2022-11-30T02:36:00.535Z,44.43
2022-11-30T02:38:30.376Z,45.20
2022-11-30T02:40:59.033Z,43.50
2022-11-30T02:43:29.623Z,48.70
2022-11-30T02:46:07.075Z,42.63
2022-11-30T02:48:43.725Z,42.57
2022-11-30T02:51:16.990Z,44.07
2022-11-30T02:53:46.555Z,43.73
2022-11-30T02:56:15.383Z,44.60
2022-11-30T02:58:43.994Z,44.07
2022-11-30T03:01:14.096Z,43.87
2022-11-30T03:03:42.757Z,46.40
2022-11-30T03:06:11.459Z,41.90
2022-11-30T03:08:40.053Z,40.73
2022-11-30T03:11:08.720Z,43.30
2022-11-30T03:13:37.372Z,44.53
2022-11-30T03:16:09.785Z,54.03
2022-11-30T03:18:40.456Z,45.43
2022-11-30T03:21:09.814Z,45.07
2022-11-30T03:23:38.443Z,49.97
2022-11-30T03:26:08.951Z,68.77
2022-11-30T03:28:38.078Z,44.43
2022-11-30T03:31:06.963Z,44.33
2022-11-30T03:33:35.616Z,38.97
2022-11-30T03:36:07.350Z,42.57
2022-11-30T03:38:36.393Z,39.60
2022-11-30T03:41:07.670Z,46.50
2022-11-30T03:43:37.046Z,43.63
2022-11-30T03:46:06.345Z,39.90
2022-11-30T03:48:36.044Z,38.70
2022-11-30T03:51:06.413Z,43.40
2022-11-30T03:53:35.342Z,46.63
2022-11-30T03:56:05.765Z,45.47
2022-11-30T03:58:34.370Z,41.13
2022-11-30T04:01:04.335Z,41.50
2022-11-30T04:03:33.584Z,43.23
2022-11-30T04:06:02.317Z,42.97
2022-11-30T04:08:32.607Z,42.03
2022-11-30T04:11:02.776Z,45.87
2022-11-30T04:13:32.967Z,42.80
2022-11-30T04:16:01.768Z,46.33
2022-11-30T04:18:32.724Z,40.17
2022-11-30T04:21:02.275Z,43.97
2022-11-30T04:23:34.616Z,46.27
2022-11-30T04:26:04.416Z,44.33
2022-11-30T04:28:33.280Z,43.47
2022-11-30T04:31:02.825Z,53.43
2022-11-30T04:33:31.821Z,43.00
2022-11-30T04:36:01.972Z,39.97
2022-11-30T04:38:32.080Z,45.70
2022-11-30T04:41:00.972Z,49.50
2022-11-30T04:43:29.683Z,41.40
2022-11-30T04:45:58.289Z,46.00
2022-11-30T04:48:26.880Z,43.77
2022-11-30T04:50:55.550Z,39.90
2022-11-30T04:53:24.147Z,51.43
2022-11-30T04:55:54.155Z,50.43
2022-11-30T04:58:22.690Z,44.40
2022-11-30T05:00:51.545Z,56.33
2022-11-30T05:03:20.115Z,46.30
2022-11-30T05:05:48.779Z,48.83
2022-11-30T05:08:17.411Z,64.07
2022-11-30T05:10:51.616Z,51.07
2022-11-30T05:13:26.235Z,52.43
2022-11-30T05:15:55.186Z,71.80
2022-11-30T05:18:24.247Z,59.23
2022-11-30T05:20:54.297Z,47.07
2022-11-30T05:23:23.528Z,53.93
2022-11-30T05:25:52.215Z,48.47
2022-11-30T05:28:22.277Z,52.50
2022-11-30T05:30:50.940Z,53.40
2022-11-30T05:33:19.546Z,51.33
2022-11-30T05:35:48.160Z,53.40
2022-11-30T05:38:16.784Z,49.67
2022-11-30T05:40:45.373Z,65.77
2022-11-30T05:43:13.974Z,53.20
2022-11-30T05:45:43.986Z,53.37
2022-11-30T05:48:12.575Z,56.00
2022-11-30T05:50:41.214Z,55.73
2022-11-30T05:53:09.879Z,64.80
2022-11-30T05:55:38.476Z,65.07
2022-11-30T05:58:07.076Z,54.40
2022-11-30T06:00:35.748Z,62.23
2022-11-30T06:03:05.816Z,85.73
2022-11-30T06:05:36.760Z,63.43
2022-11-30T06:08:05.539Z,52.60
2022-11-30T06:10:34.133Z,63.13
2022-11-30T06:13:09.692Z,53.13
2022-11-30T06:15:38.551Z,59.20
2022-11-30T06:18:09.993Z,54.93
2022-11-30T06:20:38.632Z,63.23
2022-11-30T06:23:07.339Z,51.93
2022-11-30T06:25:35.946Z,57.43
2022-11-30T06:28:04.891Z,52.47
2022-11-30T06:30:33.515Z,61.63
2022-11-30T06:33:02.153Z,59.37
2022-11-30T06:35:32.101Z,71.60
2022-11-30T06:38:01.491Z,77.83
2022-11-30T06:40:30.446Z,77.80
2022-11-30T06:42:59.007Z,71.50
2022-11-30T06:45:28.167Z,61.63
2022-11-30T06:47:57.125Z,67.07
2022-11-30T06:50:26.217Z,65.43
2022-11-30T06:52:57.878Z,73.53
2022-11-30T06:55:26.554Z,80.57
2022-11-30T06:57:55.137Z,80.43
2022-11-30T07:00:23.959Z,69.53
2022-11-30T07:02:52.556Z,76.43
2022-11-30T07:05:21.153Z,82.80
2022-11-30T07:07:49.793Z,68.23
2022-11-30T07:10:20.369Z,81.40
2022-11-30T07:12:49.149Z,70.67
2022-11-30T07:15:18.025Z,72.07
2022-11-30T07:17:46.620Z,73.77
2022-11-30T07:20:15.528Z,75.73
2022-11-30T07:22:44.142Z,71.67
2022-11-30T07:25:30.240Z,161.87
2022-11-30T07:28:00.226Z,88.43
2022-11-30T07:30:28.861Z,139.60
2022-11-30T07:32:57.461Z,107.33
2022-11-30T07:35:26.084Z,96.97
2022-11-30T07:37:54.669Z,104.97
2022-11-30T07:40:23.264Z,102.13
2022-11-30T07:42:56.712Z,97.03
2022-11-30T07:45:26.697Z,91.97
2022-11-30T07:47:55.344Z,79.60
2022-11-30T07:50:23.925Z,73.00
2022-11-30T07:52:52.600Z,84.30
2022-11-30T07:55:23.592Z,72.27
2022-11-30T07:57:52.173Z,67.90
2022-11-30T08:00:20.992Z,67.10
2022-11-30T08:02:53.320Z,59.40
2022-11-30T08:05:23.137Z,71.97
2022-11-30T08:07:53.434Z,59.00
2022-11-30T08:10:23.320Z,60.90
2022-11-30T08:12:51.963Z,57.93
2022-11-30T08:15:22.364Z,61.37
2022-11-30T08:17:55.250Z,60.87
2022-11-30T08:20:24.292Z,54.13
2022-11-30T08:22:52.982Z,53.97
2022-11-30T08:25:21.577Z,53.37
2022-11-30T08:27:50.167Z,47.30
2022-11-30T08:30:18.986Z,48.77
2022-11-30T08:32:47.565Z,44.03
2022-11-30T08:35:17.557Z,41.10
2022-11-30T08:37:46.173Z,50.50
2022-11-30T08:40:15.121Z,45.70
2022-11-30T08:42:43.764Z,44.80
2022-11-30T08:45:12.835Z,44.17
2022-11-30T08:47:41.419Z,36.77
2022-11-30T08:50:10.719Z,41.17
2022-11-30T08:52:40.720Z,41.53
2022-11-30T08:55:10.411Z,38.97
2022-11-30T08:57:39.079Z,64.27
2022-11-30T09:00:08.952Z,42.67
2022-11-30T09:02:39.204Z,41.93
2022-11-30T09:05:08.423Z,42.20
2022-11-30T09:07:37.058Z,49.93
2022-11-30T09:10:08.263Z,44.40
2022-11-30T09:12:37.452Z,41.40
2022-11-30T09:15:06.967Z,45.27
2022-11-30T09:17:35.675Z,38.10
2022-11-30T09:20:04.552Z,42.07
2022-11-30T09:22:33.215Z,34.80
2022-11-30T09:25:01.873Z,38.90
2022-11-30T09:27:33.377Z,39.60
2022-11-30T09:30:02.347Z,40.10
2022-11-30T09:32:31.323Z,40.73
2022-11-30T09:34:59.895Z,33.77
2022-11-30T09:37:28.503Z,42.07
2022-11-30T09:39:57.061Z,42.60
2022-11-30T09:42:44.522Z,42.27
2022-11-30T09:45:20.166Z,39.47
2022-11-30T09:48:12.268Z,34.67
2022-11-30T09:50:43.789Z,48.70
2022-11-30T09:53:22.118Z,39.70
2022-11-30T09:55:55.784Z,41.43
2022-11-30T09:58:34.580Z,47.33
2022-11-30T10:01:06.893Z,42.07
2022-11-30T10:03:36.174Z,42.43
2022-11-30T10:06:09.897Z,38.17
2022-11-30T10:08:51.511Z,39.73
2022-11-30T10:11:46.826Z,39.40
2022-11-30T10:14:40.980Z,35.40
2022-11-30T10:17:23.255Z,42.67
2022-11-30T10:20:06.336Z,40.37
2022-11-30T10:22:51.173Z,44.63
2022-11-30T10:25:24.434Z,37.43
2022-11-30T10:27:54.837Z,30.67
2022-11-30T10:30:27.350Z,37.00
2022-11-30T10:32:57.651Z,34.20
2022-11-30T10:35:38.257Z,46.70
2022-11-30T10:38:18.593Z,34.20
2022-11-30T10:40:52.477Z,37.17
2022-11-30T10:43:27.502Z,35.47
2022-11-30T10:45:57.690Z,41.97
2022-11-30T10:48:34.366Z,32.50
2022-11-30T10:51:04.536Z,32.63
2022-11-30T10:53:34.316Z,39.27
2022-11-30T10:56:08.026Z,36.43
2022-11-30T10:58:40.599Z,34.70
2022-11-30T11:01:12.724Z,40.10
2022-11-30T11:03:41.502Z,36.27
2022-11-30T11:06:16.925Z,35.53
2022-11-30T11:08:46.967Z,33.03
2022-11-30T11:11:35.096Z,29.27
2022-11-30T11:14:18.800Z,39.27
2022-11-30T11:16:54.399Z,37.50
2022-11-30T11:19:27.006Z,34.93
2022-11-30T11:21:55.704Z,32.00
2022-11-30T11:24:28.580Z,38.53
2022-11-30T11:26:58.404Z,35.37
2022-11-30T11:29:34.411Z,31.30
2022-11-30T11:32:24.800Z,52.93
2022-11-30T11:34:54.112Z,34.87
2022-11-30T11:37:26.388Z,33.97
2022-11-30T11:40:02.170Z,33.77
2022-11-30T11:42:34.558Z,35.53
2022-11-30T11:45:04.561Z,37.73
2022-11-30T11:47:40.643Z,28.47
2022-11-30T11:51:04.354Z,35.23
2022-11-30T11:53:23.889Z,31.20
2022-11-30T11:56:00.970Z,37.03
2022-11-30T11:58:38.840Z,29.33
2022-11-30T12:01:38.708Z,31.63
2022-11-30T12:04:14.313Z,28.97
2022-11-30T12:06:45.625Z,39.17
2022-11-30T12:09:19.300Z,40.67
2022-11-30T12:11:49.637Z,25.53
2022-11-30T12:14:20.163Z,25.17
2022-11-30T12:17:05.262Z,32.70
2022-11-30T12:19:41.777Z,34.53
2022-11-30T12:22:25.784Z,30.70
2022-11-30T12:25:08.808Z,29.73
2022-11-30T12:27:46.878Z,29.17
2022-11-30T12:30:24.722Z,27.97
2022-11-30T12:33:14.428Z,30.63
2022-11-30T12:35:55.075Z,30.27
2022-11-30T12:38:35.645Z,28.50
2022-11-30T12:41:16.387Z,25.30
2022-11-30T12:43:49.821Z,29.00
2022-11-30T12:46:27.087Z,26.83
2022-11-30T12:49:21.253Z,28.53
2022-11-30T12:52:01.164Z,32.50
2022-11-30T12:54:40.572Z,37.40
2022-11-30T12:57:17.138Z,35.97
2022-11-30T12:59:55.652Z,29.13
2022-11-30T13:03:00.305Z,29.97
2022-11-30T13:05:34.055Z,25.50
2022-11-30T13:08:13.294Z,28.50
2022-11-30T13:10:45.507Z,35.17
2022-11-30T13:13:18.047Z,32.87
2022-11-30T13:15:49.699Z,31.67
2022-11-30T13:18:20.824Z,32.97
2022-11-30T13:20:54.937Z,29.07
2022-11-30T13:23:34.290Z,26.47
2022-11-30T13:26:10.200Z,34.23
2022-11-30T13:28:58.230Z,37.13
2022-11-30T13:31:29.679Z,32.80
2022-11-30T13:34:02.171Z,33.77
2022-11-30T13:36:39.594Z,29.17
2022-11-30T13:39:22.423Z,39.53
2022-11-30T13:42:11.528Z,31.60
2022-11-30T13:44:41.970Z,35.97
2022-11-30T13:47:20.249Z,36.33
2022-11-30T13:49:57.098Z,34.40
2022-11-30T13:52:59.304Z,25.90
2022-11-30T13:55:59.291Z,36.93
2022-11-30T13:58:28.890Z,34.20
2022-11-30T14:01:22.830Z,34.37
2022-11-30T14:04:23.551Z,33.50
2022-11-30T14:06:55.266Z,30.80
2022-11-30T14:10:08.531Z,51.80
2022-11-30T14:12:58.893Z,33.33
2022-11-30T14:15:59.925Z,32.80
2022-11-30T14:18:47.658Z,32.53
2022-11-30T14:21:23.970Z,28.43
2022-11-30T14:23:57.687Z,32.27
2022-11-30T14:26:31.251Z,29.83
2022-11-30T14:29:05.778Z,38.00
2022-11-30T14:31:40.505Z,28.80
2022-11-30T14:34:16.753Z,34.63
2022-11-30T14:36:49.417Z,33.40
2022-11-30T14:39:32.389Z,35.97
2022-11-30T14:42:01.136Z,36.63
2022-11-30T14:44:36.411Z,33.20
2022-11-30T14:47:15.752Z,41.90
2022-11-30T14:49:48.616Z,39.03
2022-11-30T14:52:32.235Z,32.80
2022-11-30T14:55:16.376Z,41.20
2022-11-30T14:57:50.125Z,36.27
2022-11-30T15:00:22.504Z,33.97
2022-11-30T15:02:51.769Z,50.07
2022-11-30T15:05:26.803Z,34.83
2022-11-30T15:07:55.949Z,30.50
2022-11-30T15:10:30.051Z,38.33
2022-11-30T15:13:00.099Z,33.43
2022-11-30T15:15:31.415Z,39.67
2022-11-30T15:18:07.643Z,35.60
2022-11-30T15:20:40.946Z,37.50
2022-11-30T15:23:15.573Z,30.20
2022-11-30T15:25:47.930Z,37.63
2022-11-30T15:28:22.559Z,34.63
2022-11-30T15:30:57.097Z,31.30
2022-11-30T15:33:32.161Z,44.60
2022-11-30T15:36:32.049Z,35.23
2022-11-30T15:38:52.023Z,36.80
2022-11-30T15:41:22.844Z,34.80
2022-11-30T15:43:53.492Z,35.70
2022-11-30T15:46:37.726Z,34.70
2022-11-30T15:49:17.985Z,30.50
2022-11-30T15:51:54.530Z,38.70
2022-11-30T15:54:47.784Z,46.87
2022-11-30T15:57:16.655Z,43.13
2022-11-30T15:59:45.774Z,51.60
2022-11-30T16:02:36.239Z,37.37
2022-11-30T16:05:24.397Z,35.43
2022-11-30T16:07:55.590Z,29.30
2022-11-30T16:10:26.249Z,37.63
2022-11-30T16:12:56.070Z,32.10
2022-11-30T16:15:26.535Z,33.90
2022-11-30T16:17:59.559Z,38.13
2022-11-30T16:20:28.263Z,48.27
2022-11-30T16:22:59.961Z,49.93
2022-11-30T16:25:32.732Z,45.17
2022-11-30T16:28:02.947Z,29.83
2022-11-30T16:30:32.718Z,32.63
2022-11-30T16:33:03.327Z,28.00
2022-11-30T16:35:38.956Z,32.30
2022-11-30T16:38:08.103Z,22.90
2022-11-30T16:40:39.205Z,35.93
2022-11-30T16:43:08.701Z,37.87
2022-11-30T16:45:39.731Z,47.57
2022-11-30T16:48:13.054Z,43.57
2022-11-30T16:50:44.597Z,32.63
2022-11-30T16:53:16.564Z,46.70
2022-11-30T16:55:45.879Z,43.60
2022-11-30T16:58:14.724Z,50.43
2022-11-30T17:00:44.084Z,47.60
2022-11-30T17:03:22.023Z,46.47
2022-11-30T17:05:51.569Z,40.43
2022-11-30T17:08:20.786Z,52.43
2022-11-30T17:10:54.777Z,50.67
2022-11-30T17:13:38.678Z,39.07
2022-11-30T17:16:11.994Z,47.30
2022-11-30T17:19:10.696Z,38.70
2022-11-30T17:22:06.311Z,52.27
2022-11-30T17:27:56.686Z,46.90
2022-11-30T17:30:31.117Z,37.93
2022-11-30T17:33:11.268Z,38.77
2022-11-30T17:35:46.435Z,43.00
2022-11-30T17:38:23.046Z,55.60
2022-11-30T17:41:03.889Z,39.87
2022-11-30T17:43:37.583Z,57.80
2022-11-30T17:46:10.692Z,36.23
2022-11-30T17:48:51.026Z,86.07
2022-11-30T17:51:21.085Z,67.87
2022-11-30T17:53:49.686Z,66.40
2022-11-30T17:56:18.958Z,65.83
2022-11-30T17:58:49.113Z,34.43
2022-11-30T18:01:19.440Z,64.63
2022-11-30T18:03:48.383Z,74.63
2022-11-30T18:06:17.835Z,43.93
2022-11-30T18:08:48.196Z,85.60
2022-11-30T18:11:19.106Z,76.93
2022-11-30T18:13:48.492Z,50.37
2022-11-30T18:16:19.554Z,51.47
2022-11-30T18:18:49.091Z,59.67
2022-11-30T18:21:19.847Z,61.53
2022-11-30T18:23:50.982Z,59.37
2022-11-30T18:26:22.551Z,73.43
2022-11-30T18:28:54.262Z,62.67
2022-11-30T18:31:23.916Z,77.93
2022-11-30T18:33:56.743Z,60.80
2022-11-30T18:36:26.688Z,66.83
2022-11-30T18:38:57.334Z,59.53
2022-11-30T18:41:28.555Z,84.13
2022-11-30T18:43:58.090Z,77.13
2022-11-30T18:46:28.929Z,79.57
2022-11-30T18:48:59.286Z,65.97
2022-11-30T18:51:30.314Z,81.33
2022-11-30T18:54:06.688Z,48.97
2022-11-30T18:56:38.043Z,70.27
2022-11-30T18:59:08.787Z,75.73
2022-11-30T19:01:38.769Z,83.13
2022-11-30T19:04:09.527Z,76.63
2022-11-30T19:06:39.913Z,52.70
2022-11-30T19:09:12.915Z,79.00
2022-11-30T19:11:42.664Z,73.03
2022-11-30T19:14:14.734Z,60.90
2022-11-30T19:16:43.830Z,88.07
2022-11-30T19:19:15.012Z,89.17
2022-11-30T19:21:47.242Z,94.20
2022-11-30T19:24:17.585Z,73.43
2022-11-30T19:26:46.282Z,80.93
2022-11-30T19:29:15.592Z,96.57
2022-11-30T19:31:44.274Z,94.00
2022-11-30T19:34:13.933Z,94.73
2022-11-30T19:36:42.715Z,83.47
2022-11-30T19:39:11.626Z,65.10
2022-11-30T19:41:42.917Z,73.80
2022-11-30T19:44:18.518Z,76.60
2022-11-30T19:46:48.564Z,77.93
2022-11-30T19:49:18.315Z,70.27
2022-11-30T19:51:47.600Z,83.50
2022-11-30T19:54:17.688Z,80.50
2022-11-30T19:56:49.175Z,76.10
2022-11-30T19:59:18.015Z,84.43
2022-11-30T20:01:48.407Z,88.93
2022-11-30T20:04:18.073Z,72.63
2022-11-30T20:06:47.590Z,40.70
2022-11-30T20:09:17.298Z,83.83
2022-11-30T20:11:49.927Z,75.87
2022-11-30T20:14:19.278Z,82.27
2022-11-30T20:16:48.924Z,94.40
2022-11-30T20:19:18.760Z,71.33
2022-11-30T20:21:48.701Z,87.57
2022-11-30T20:24:18.204Z,83.63
2022-11-30T20:26:50.089Z,68.33
2022-11-30T20:29:20.873Z,73.27
2022-11-30T20:31:51.188Z,72.57
2022-11-30T20:34:20.452Z,81.87
2022-11-30T20:36:49.659Z,60.47
2022-11-30T20:39:19.397Z,64.10
2022-11-30T20:41:50.841Z,81.53
2022-11-30T20:44:20.067Z,90.53
2022-11-30T20:46:49.129Z,88.93
2022-11-30T20:49:21.437Z,95.27
2022-11-30T20:51:51.042Z,88.20
2022-11-30T20:54:22.836Z,60.40
2022-11-30T20:56:53.916Z,77.30
2022-11-30T20:59:26.837Z,48.00
2022-11-30T21:01:57.735Z,79.90
2022-11-30T21:04:27.930Z,80.90
2022-11-30T21:06:58.036Z,61.90
2022-11-30T21:09:26.776Z,69.50
2022-11-30T21:11:57.473Z,44.17
2022-11-30T21:14:26.488Z,34.60
2022-11-30T21:16:55.656Z,77.90
2022-11-30T21:19:25.004Z,66.63
2022-11-30T21:21:55.664Z,89.00
2022-11-30T21:24:25.474Z,86.33
2022-11-30T21:26:56.547Z,91.77
2022-11-30T21:29:25.568Z,78.73
2022-11-30T21:31:54.787Z,60.47
2022-11-30T21:34:24.164Z,62.00
2022-11-30T21:36:53.568Z,69.20
2022-11-30T21:39:22.574Z,48.77
2022-11-30T21:41:51.770Z,86.33
2022-11-30T21:44:22.957Z,80.13
2022-11-30T21:46:52.661Z,62.33
2022-11-30T21:49:22.537Z,73.30
2022-11-30T21:51:51.971Z,85.87
2022-11-30T21:54:21.121Z,83.73
2022-11-30T21:56:53.081Z,77.93
2022-11-30T21:59:23.397Z,88.63
2022-11-30T22:01:52.642Z,75.43
2022-11-30T22:04:22.120Z,82.77
2022-11-30T22:06:51.700Z,71.90
2022-11-30T22:09:20.560Z,64.50
2022-11-30T22:11:49.572Z,68.63
2022-11-30T22:14:18.831Z,79.00
2022-11-30T22:16:49.862Z,79.60
2022-11-30T22:19:19.422Z,85.10
2022-11-30T22:21:50.397Z,52.33
2022-11-30T22:24:19.289Z,71.27
2022-11-30T22:26:49.120Z,74.23
2022-11-30T22:29:19.415Z,57.83
2022-11-30T22:31:51.492Z,74.33
2022-11-30T22:34:20.970Z,82.53
2022-11-30T22:36:49.903Z,70.90
2022-11-30T22:39:20.310Z,71.03
2022-11-30T22:41:55.761Z,74.70
2022-11-30T22:44:25.591Z,80.80
2022-11-30T22:46:55.944Z,87.27
2022-11-30T22:49:24.732Z,77.90
2022-11-30T22:51:53.580Z,92.43
2022-11-30T22:54:22.179Z,73.00
2022-11-30T22:56:50.825Z,74.20
2022-11-30T22:59:19.428Z,71.50
2022-11-30T23:01:51.453Z,52.97
2022-11-30T23:04:23.707Z,74.90
2022-11-30T23:06:52.431Z,75.13
2022-11-30T23:09:23.717Z,71.73
2022-11-30T23:11:53.139Z,74.83
2022-11-30T23:14:22.066Z,73.03
2022-11-30T23:16:50.695Z,69.73
2022-11-30T23:19:20.719Z,89.93
2022-11-30T23:21:50.138Z,68.60
2022-11-30T23:24:21.221Z,70.10
2022-11-30T23:26:50.011Z,69.47
2022-11-30T23:29:19.144Z,75.93
2022-11-30T23:31:49.148Z,72.97
2022-11-30T23:34:21.387Z,57.87
2022-11-30T23:36:50.642Z,65.23
2022-11-30T23:39:20.389Z,69.00
2022-11-30T23:41:49.719Z,73.77
2022-11-30T23:44:18.617Z,75.87
2022-11-30T23:46:47.423Z,65.93
2022-11-30T23:49:16.275Z,64.50
2022-11-30T23:51:46.308Z,58.77
2022-11-30T23:54:14.948Z,63.60
2022-11-30T23:56:52.812Z,70.37
2022-11-30T23:59:21.608Z,70.73
